createdAt,value
2019-04-25T00:00:19.751Z,0.00
2019-04-25T00:01:21.576Z,0.00
2019-04-25T00:02:21.252Z,0.00
2019-04-25T00:03:19.641Z,0.00
2019-04-25T00:04:19.620Z,0.00
2019-04-25T00:05:21.124Z,0.00
2019-04-25T00:06:19.547Z,0.00
2019-04-25T00:07:19.516Z,0.00
2019-04-25T00:08:19.464Z,0.00
2019-04-25T00:09:19.431Z,0.00
2019-04-25T00:10:19.394Z,0.00
2019-04-25T00:11:19.359Z,0.00
2019-04-25T00:12:19.321Z,0.00
2019-04-25T00:13:19.285Z,0.00
2019-04-25T00:14:19.283Z,0.00
2019-04-25T00:15:19.246Z,0.00
2019-04-25T00:16:19.179Z,0.00
2019-04-25T00:17:19.141Z,0.00
2019-04-25T00:18:19.107Z,0.00
2019-04-25T00:19:19.067Z,0.00
2019-04-25T00:20:19.031Z,0.00
2019-04-25T00:21:19.042Z,0.00
2019-04-25T00:22:18.963Z,0.00
2019-04-25T00:23:18.942Z,0.00
2019-04-25T00:24:18.899Z,0.00
2019-04-25T00:25:18.858Z,0.00
2019-04-25T00:26:18.822Z,0.00
2019-04-25T00:27:18.810Z,0.00
2019-04-25T00:28:18.749Z,0.00
2019-04-25T00:29:18.721Z,0.00
2019-04-25T00:30:18.670Z,0.00
2019-04-25T00:31:18.635Z,0.00
2019-04-25T00:32:18.602Z,0.00
2019-04-25T00:33:18.567Z,0.00
2019-04-25T00:34:18.526Z,0.00
2019-04-25T00:35:18.493Z,0.00
2019-04-25T00:36:18.465Z,0.00
2019-04-25T00:37:18.422Z,0.00
2019-04-25T00:38:18.384Z,0.00
2019-04-25T00:39:18.365Z,0.00
2019-04-25T00:40:18.315Z,0.00
2019-04-25T00:41:18.279Z,0.00
2019-04-25T00:42:18.239Z,0.00
2019-04-25T00:43:18.206Z,0.00
2019-04-25T00:44:18.172Z,0.00
2019-04-25T00:45:18.141Z,0.00
2019-04-25T00:46:18.131Z,0.00
2019-04-25T00:47:18.063Z,0.00
2019-04-25T00:48:18.025Z,0.00
2019-04-25T00:49:17.992Z,0.00
2019-04-25T00:50:17.953Z,0.00
2019-04-25T00:51:17.917Z,0.00
2019-04-25T00:52:17.889Z,0.00
2019-04-25T00:53:17.851Z,0.00
2019-04-25T00:54:17.808Z,0.00
2019-04-25T00:55:26.938Z,0.00
2019-04-25T00:56:17.738Z,0.00
2019-04-25T00:57:17.700Z,0.00
2019-04-25T00:58:17.670Z,0.00
2019-04-25T00:59:17.637Z,0.00
2019-04-25T01:00:17.595Z,0.00
2019-04-25T01:01:17.569Z,0.00
2019-04-25T01:02:17.519Z,0.00
2019-04-25T01:03:17.485Z,0.00
2019-04-25T01:04:17.455Z,0.00
2019-04-25T01:05:17.415Z,0.00
2019-04-25T01:06:17.377Z,0.00
2019-04-25T01:07:17.339Z,0.00
2019-04-25T01:08:17.312Z,0.00
2019-04-25T01:09:17.269Z,0.00
2019-04-25T01:10:17.231Z,0.00
2019-04-25T01:11:17.196Z,0.00
2019-04-25T01:12:17.159Z,0.00
2019-04-25T01:13:17.122Z,0.00
2019-04-25T01:14:17.094Z,0.00
2019-04-25T01:15:17.052Z,0.00
2019-04-25T01:16:17.017Z,0.00
2019-04-25T01:17:16.980Z,0.00
2019-04-25T01:18:16.942Z,0.00
2019-04-25T01:19:16.903Z,0.00
2019-04-25T01:20:16.870Z,0.00
2019-04-25T01:21:16.835Z,0.00
2019-04-25T01:22:16.799Z,0.00
2019-04-25T01:23:16.757Z,0.00
2019-04-25T01:24:16.746Z,0.00
2019-04-25T01:25:16.688Z,0.00
2019-04-25T01:26:16.656Z,0.00
2019-04-25T01:27:16.616Z,0.00
2019-04-25T01:28:16.577Z,0.00
2019-04-25T01:29:16.546Z,0.00
2019-04-25T01:30:16.506Z,0.00
2019-04-25T01:31:16.474Z,0.00
2019-04-25T01:32:16.459Z,0.00
2019-04-25T01:33:16.397Z,0.00
2019-04-25T01:34:16.360Z,0.00
2019-04-25T01:35:16.331Z,0.00
2019-04-25T01:36:16.290Z,0.00
2019-04-25T01:37:16.250Z,0.00
2019-04-25T01:38:16.215Z,0.00
2019-04-25T01:39:16.178Z,0.00
2019-04-25T01:40:16.154Z,0.00
2019-04-25T01:41:16.107Z,0.00
2019-04-25T01:42:16.069Z,0.00
2019-04-25T01:43:16.041Z,0.00
2019-04-25T01:44:16.006Z,0.00
2019-04-25T01:45:15.960Z,0.00
2019-04-25T01:46:15.927Z,0.00
2019-04-25T01:47:15.886Z,0.00
2019-04-25T01:48:15.858Z,0.00
2019-04-25T01:49:15.841Z,0.00
2019-04-25T01:50:15.784Z,0.00
2019-04-25T01:51:15.745Z,0.00
2019-04-25T01:52:15.714Z,0.00
2019-04-25T01:53:15.673Z,0.00
2019-04-25T01:54:15.638Z,0.00
2019-04-25T01:55:15.596Z,0.00
2019-04-25T01:56:15.569Z,0.00
2019-04-25T01:57:15.564Z,0.00
2019-04-25T01:58:15.488Z,0.00
2019-04-25T01:59:15.467Z,0.00
2019-04-25T02:00:15.418Z,0.00
2019-04-25T02:01:15.379Z,0.00
2019-04-25T02:02:15.366Z,0.00
2019-04-25T02:03:15.312Z,0.00
2019-04-25T02:04:15.273Z,0.00
2019-04-25T02:05:15.238Z,0.00
2019-04-25T02:06:15.205Z,0.00
2019-04-25T02:07:15.164Z,0.00
2019-04-25T02:08:15.131Z,0.00
2019-04-25T02:09:15.090Z,0.00
2019-04-25T02:10:15.066Z,0.00
2019-04-25T02:11:15.018Z,0.00
2019-04-25T02:12:15.555Z,0.00
2019-04-25T02:13:14.945Z,0.00
2019-04-25T02:14:14.904Z,0.00
2019-04-25T02:15:14.894Z,0.00
2019-04-25T02:16:14.858Z,0.00
2019-04-25T02:17:14.804Z,0.00
2019-04-25T02:18:14.762Z,0.00
2019-04-25T02:19:14.724Z,0.00
2019-04-25T02:20:14.696Z,0.00
2019-04-25T02:21:14.674Z,0.00
2019-04-25T02:22:14.667Z,0.00
2019-04-25T02:23:14.581Z,0.00
2019-04-25T02:24:14.545Z,0.00
2019-04-25T02:25:14.526Z,0.00
2019-04-25T02:26:16.780Z,0.00
2019-04-25T02:27:14.439Z,0.00
2019-04-25T02:28:15.875Z,0.00
2019-04-25T02:29:14.363Z,0.00
2019-04-25T02:30:15.433Z,0.00
2019-04-25T02:31:17.615Z,0.00
2019-04-25T02:32:14.724Z,0.00
2019-04-25T02:33:14.358Z,0.00
2019-04-25T02:34:17.577Z,0.00
2019-04-25T02:35:14.767Z,0.00
2019-04-25T02:36:15.066Z,0.00
2019-04-25T02:37:14.741Z,0.00
2019-04-25T02:38:14.639Z,0.00
2019-04-25T02:39:14.891Z,0.00
2019-04-25T02:40:14.253Z,0.00
2019-04-25T02:41:14.768Z,0.00
2019-04-25T02:42:16.533Z,0.00
2019-04-25T02:43:14.348Z,0.00
2019-04-25T02:44:14.576Z,0.00
2019-04-25T02:45:16.274Z,0.00
2019-04-25T02:46:15.157Z,0.00
2019-04-25T02:47:14.814Z,0.00
2019-04-25T02:48:14.193Z,0.00
2019-04-25T02:49:28.840Z,0.00
2019-04-25T02:50:15.105Z,0.00
2019-04-25T02:51:14.600Z,0.00
2019-04-25T02:52:17.807Z,0.00
2019-04-25T02:53:14.113Z,0.00
2019-04-25T02:54:14.048Z,0.00
2019-04-25T02:55:29.584Z,0.00
2019-04-25T02:56:30.327Z,0.00
2019-04-25T02:57:14.661Z,0.00
2019-04-25T02:58:14.086Z,0.00
2019-04-25T02:59:15.015Z,0.00
2019-04-25T03:00:14.971Z,0.00
2019-04-25T03:01:21.258Z,0.00
2019-04-25T03:02:15.262Z,0.00
2019-04-25T03:03:14.912Z,0.00
2019-04-25T03:04:14.407Z,0.00
2019-04-25T03:05:14.286Z,0.00
2019-04-25T03:06:15.017Z,0.00
2019-04-25T03:07:16.812Z,0.00
2019-04-25T03:08:14.269Z,0.00
2019-04-25T03:09:15.265Z,0.00
2019-04-25T03:10:14.867Z,0.00
2019-04-25T03:11:14.939Z,0.00
2019-04-25T03:12:26.806Z,0.00
2019-04-25T03:13:14.811Z,0.00
2019-04-25T03:14:14.582Z,0.00
2019-04-25T03:15:14.464Z,0.00
2019-04-25T03:16:13.998Z,0.00
2019-04-25T03:17:14.232Z,0.00
2019-04-25T03:18:15.207Z,0.00
2019-04-25T03:19:14.113Z,0.00
2019-04-25T03:20:14.613Z,0.00
2019-04-25T03:21:16.947Z,0.00
2019-04-25T03:22:14.954Z,0.00
2019-04-25T03:23:14.455Z,0.00
2019-04-25T03:24:13.989Z,0.00
2019-04-25T03:25:16.470Z,0.00
2019-04-25T03:26:13.520Z,0.00
2019-04-25T03:27:12.261Z,0.00
2019-04-25T03:28:13.786Z,0.00
2019-04-25T03:29:13.662Z,0.00
2019-04-25T03:30:14.849Z,0.00
2019-04-25T03:31:18.605Z,0.00
2019-04-25T03:32:14.467Z,0.00
2019-04-25T03:33:18.963Z,0.00
2019-04-25T03:34:16.024Z,0.00
2019-04-25T03:35:13.363Z,0.00
2019-04-25T03:36:11.932Z,0.00
2019-04-25T03:37:13.630Z,0.00
2019-04-25T03:38:12.596Z,0.00
2019-04-25T03:39:14.398Z,0.00
2019-04-25T03:40:13.502Z,0.00
2019-04-25T03:41:11.744Z,0.00
2019-04-25T03:42:12.041Z,0.00
2019-04-25T03:43:11.673Z,0.00
2019-04-25T03:44:12.519Z,0.00
2019-04-25T03:45:11.598Z,0.00
2019-04-25T03:46:12.743Z,0.00
2019-04-25T03:47:11.619Z,0.00
2019-04-25T03:48:11.716Z,0.00
2019-04-25T03:49:11.847Z,0.00
2019-04-25T03:50:12.309Z,0.00
2019-04-25T03:51:12.178Z,0.00
2019-04-25T03:52:12.234Z,0.00
2019-04-25T03:53:12.100Z,4.00
2019-04-25T03:54:12.206Z,4.00
2019-04-25T03:55:11.236Z,0.00
2019-04-25T03:56:11.205Z,4.00
2019-04-25T03:57:11.166Z,4.00
2019-04-25T03:58:11.736Z,4.00
2019-04-25T03:59:11.091Z,4.00
2019-04-25T04:00:11.055Z,4.00
2019-04-25T04:01:11.054Z,8.00
2019-04-25T04:02:11.029Z,8.00
2019-04-25T04:03:11.451Z,8.00
2019-04-25T04:04:11.149Z,8.00
2019-04-25T04:05:11.477Z,12.00
2019-04-25T04:06:11.614Z,16.00
2019-04-25T04:07:11.406Z,12.00
2019-04-25T04:08:10.765Z,16.00
2019-04-25T04:09:10.728Z,20.00
2019-04-25T04:10:10.697Z,24.00
2019-04-25T04:11:10.668Z,24.00
2019-04-25T04:12:10.621Z,32.00
2019-04-25T04:13:10.585Z,32.00
2019-04-25T04:14:10.543Z,36.00
2019-04-25T04:15:10.510Z,40.00
2019-04-25T04:16:10.559Z,44.00
2019-04-25T04:17:10.850Z,48.00
2019-04-25T04:18:10.706Z,56.00
2019-04-25T04:19:10.801Z,56.00
2019-04-25T04:20:10.948Z,64.00
2019-04-25T04:21:11.094Z,72.00
2019-04-25T04:22:11.165Z,80.00
2019-04-25T04:23:10.235Z,92.00
2019-04-25T04:24:10.184Z,100.00
2019-04-25T04:25:10.144Z,108.00
2019-04-25T04:26:10.105Z,124.00
2019-04-25T04:27:10.745Z,136.00
2019-04-25T04:28:10.079Z,152.00
2019-04-25T04:29:10.121Z,160.00
2019-04-25T04:30:10.085Z,180.00
2019-04-25T04:31:10.225Z,192.00
2019-04-25T04:32:10.589Z,208.00
2019-04-25T04:33:22.179Z,212.00
2019-04-25T04:34:10.569Z,216.00
2019-04-25T04:35:10.741Z,224.00
2019-04-25T04:36:09.745Z,236.00
2019-04-25T04:37:09.713Z,256.00
2019-04-25T04:38:09.689Z,272.00
2019-04-25T04:39:09.975Z,300.00
2019-04-25T04:40:09.654Z,352.00
2019-04-25T04:41:09.733Z,420.00
2019-04-25T04:42:09.663Z,492.00
2019-04-25T04:43:09.629Z,532.00
2019-04-25T04:44:10.003Z,548.00
2019-04-25T04:45:10.167Z,572.00
2019-04-25T04:46:10.189Z,600.00
2019-04-25T04:47:09.991Z,624.00
2019-04-25T04:48:10.213Z,656.00
2019-04-25T04:49:10.222Z,668.00
2019-04-25T04:50:09.243Z,684.00
2019-04-25T04:51:09.236Z,712.00
2019-04-25T04:52:09.336Z,740.00
2019-04-25T04:53:09.270Z,760.00
2019-04-25T04:54:09.500Z,776.00
2019-04-25T04:55:10.084Z,804.00
2019-04-25T04:56:09.675Z,828.00
2019-04-25T04:57:18.434Z,856.00
2019-04-25T04:58:08.958Z,872.00
2019-04-25T04:59:08.919Z,904.00
2019-04-25T05:00:08.892Z,944.00
2019-04-25T05:01:08.844Z,980.00
2019-04-25T05:02:08.810Z,896.00
2019-04-25T05:03:08.777Z,884.00
2019-04-25T05:04:08.741Z,668.00
2019-04-25T05:05:08.702Z,676.00
2019-04-25T05:06:08.667Z,688.00
2019-04-25T05:07:08.629Z,720.00
2019-04-25T05:08:08.769Z,788.00
2019-04-25T05:09:08.564Z,956.00
2019-04-25T05:10:08.526Z,972.00
2019-04-25T05:11:08.486Z,1092.00
2019-04-25T05:12:08.469Z,1528.00
2019-04-25T05:13:08.418Z,1584.00
2019-04-25T05:14:08.384Z,1628.00
2019-04-25T05:15:08.389Z,1684.00
2019-04-25T05:16:08.314Z,1708.00
2019-04-25T05:17:08.276Z,1748.00
2019-04-25T05:18:08.250Z,1736.00
2019-04-25T05:19:08.212Z,1608.00
2019-04-25T05:20:08.204Z,1600.00
2019-04-25T05:21:08.135Z,1564.00
2019-04-25T05:22:08.103Z,1280.00
2019-04-25T05:23:08.977Z,1036.00
2019-04-25T05:24:07.980Z,1052.00
2019-04-25T05:25:07.944Z,1124.00
2019-04-25T05:26:07.964Z,1172.00
2019-04-25T05:27:07.881Z,1284.00
2019-04-25T05:28:07.842Z,1464.00
2019-04-25T05:29:07.819Z,1468.00
2019-04-25T05:30:07.770Z,1372.00
2019-04-25T05:31:07.736Z,1512.00
2019-04-25T05:32:07.700Z,1532.00
2019-04-25T05:33:07.671Z,1584.00
2019-04-25T05:34:07.633Z,1672.00
2019-04-25T05:35:07.607Z,1804.00
2019-04-25T05:36:07.574Z,1936.00
2019-04-25T05:37:07.539Z,1948.00
2019-04-25T05:38:07.494Z,2204.00
2019-04-25T05:39:07.456Z,2296.00
2019-04-25T05:40:07.428Z,2224.00
2019-04-25T05:41:07.391Z,2284.00
2019-04-25T05:42:07.732Z,2208.00
2019-04-25T05:43:07.323Z,2112.00
2019-04-25T05:44:07.287Z,1988.00
2019-04-25T05:45:07.256Z,1572.00
2019-04-25T05:46:07.228Z,1740.00
2019-04-25T05:47:07.186Z,1620.00
2019-04-25T05:48:07.150Z,1696.00
2019-04-25T05:49:07.116Z,1924.00
2019-04-25T05:50:07.082Z,2208.00
2019-04-25T05:51:07.048Z,2192.00
2019-04-25T05:52:07.029Z,2024.00
2019-04-25T05:53:06.980Z,1996.00
2019-04-25T05:54:06.947Z,2020.00
2019-04-25T05:55:06.921Z,2136.00
2019-04-25T05:56:06.879Z,2004.00
2019-04-25T05:57:06.880Z,2116.00
2019-04-25T05:58:06.810Z,1836.00
2019-04-25T05:59:06.777Z,1756.00
2019-04-25T06:00:06.749Z,1728.00
2019-04-25T06:01:06.714Z,1792.00
2019-04-25T06:02:06.679Z,1632.00
2019-04-25T06:03:06.644Z,1524.00
2019-04-25T06:04:06.611Z,1388.00
2019-04-25T06:05:06.578Z,1396.00
2019-04-25T06:06:06.560Z,1396.00
2019-04-25T06:07:06.515Z,1352.00
2019-04-25T06:08:06.478Z,1356.00
2019-04-25T06:09:06.444Z,1352.00
2019-04-25T06:10:06.411Z,1356.00
2019-04-25T06:11:06.379Z,1340.00
2019-04-25T06:12:06.360Z,1348.00
2019-04-25T06:13:06.314Z,1332.00
2019-04-25T06:14:06.280Z,1344.00
2019-04-25T06:15:06.242Z,1356.00
2019-04-25T06:16:06.212Z,1376.00
2019-04-25T06:17:06.177Z,1412.00
2019-04-25T06:18:06.148Z,1464.00
2019-04-25T06:19:13.974Z,1516.00
2019-04-25T06:20:06.325Z,1568.00
2019-04-25T06:21:06.042Z,1620.00
2019-04-25T06:22:06.009Z,1688.00
2019-04-25T06:23:05.977Z,1756.00
2019-04-25T06:24:05.975Z,1828.00
2019-04-25T06:25:12.361Z,1908.00
2019-04-25T06:26:19.219Z,1964.00
2019-04-25T06:27:05.848Z,2028.00
2019-04-25T06:28:05.812Z,2112.00
2019-04-25T06:29:05.789Z,2212.00
2019-04-25T06:30:05.743Z,2252.00
2019-04-25T06:31:10.031Z,2296.00
2019-04-25T06:32:08.522Z,2340.00
2019-04-25T06:33:05.656Z,2396.00
2019-04-25T06:34:05.618Z,2552.00
2019-04-25T06:35:05.580Z,2720.00
2019-04-25T06:36:05.550Z,2536.00
2019-04-25T06:37:06.155Z,2616.00
2019-04-25T06:38:05.487Z,3372.00
2019-04-25T06:39:05.448Z,3648.00
2019-04-25T06:40:05.419Z,3572.00
2019-04-25T06:41:05.427Z,3756.00
2019-04-25T06:42:06.117Z,3008.00
2019-04-25T06:43:05.321Z,2944.00
2019-04-25T06:44:05.288Z,3696.00
2019-04-25T06:45:05.257Z,2676.00
2019-04-25T06:46:05.223Z,2312.00
2019-04-25T06:47:05.197Z,2272.00
2019-04-25T06:48:05.169Z,2300.00
2019-04-25T06:49:05.129Z,2400.00
2019-04-25T06:50:05.093Z,2888.00
2019-04-25T06:51:05.065Z,3516.00
2019-04-25T06:52:05.034Z,3392.00
2019-04-25T06:53:05.211Z,2880.00
2019-04-25T06:54:04.976Z,2356.00
2019-04-25T06:55:04.935Z,2204.00
2019-04-25T06:56:04.904Z,2160.00
2019-04-25T06:57:04.871Z,2120.00
2019-04-25T06:58:11.946Z,2120.00
2019-04-25T06:59:04.806Z,2012.00
2019-04-25T07:00:04.777Z,1864.00
2019-04-25T07:01:04.750Z,1740.00
2019-04-25T07:02:04.712Z,1688.00
2019-04-25T07:03:04.691Z,1604.00
2019-04-25T07:04:04.657Z,1588.00
2019-04-25T07:05:04.617Z,1580.00
2019-04-25T07:06:04.583Z,1620.00
2019-04-25T07:07:12.150Z,1688.00
2019-04-25T07:08:04.517Z,1800.00
2019-04-25T07:09:04.486Z,1908.00
2019-04-25T07:10:04.465Z,1988.00
2019-04-25T07:11:04.419Z,2048.00
2019-04-25T07:12:04.395Z,1936.00
2019-04-25T07:13:04.389Z,1780.00
2019-04-25T07:14:04.335Z,1720.00
2019-04-25T07:15:04.297Z,1716.00
2019-04-25T07:16:04.739Z,1728.00
2019-04-25T07:17:04.417Z,1732.00
2019-04-25T07:18:04.199Z,1760.00
2019-04-25T07:19:04.597Z,1804.00
2019-04-25T07:20:04.131Z,1904.00
2019-04-25T07:21:04.115Z,2008.00
2019-04-25T07:22:04.067Z,2116.00
2019-04-25T07:23:04.042Z,2232.00
2019-04-25T07:24:04.208Z,2244.00
2019-04-25T07:25:03.973Z,2060.00
2019-04-25T07:26:03.937Z,1804.00
2019-04-25T07:27:03.937Z,1692.00
2019-04-25T07:28:03.879Z,1652.00
2019-04-25T07:29:05.353Z,1668.00
2019-04-25T07:30:04.115Z,1628.00
2019-04-25T07:31:03.775Z,1664.00
2019-04-25T07:32:03.925Z,1760.00
2019-04-25T07:33:03.855Z,1968.00
2019-04-25T07:34:03.680Z,3492.00
2019-04-25T07:35:03.743Z,2776.00
2019-04-25T07:36:04.281Z,3696.00
2019-04-25T07:37:03.597Z,3588.00
2019-04-25T07:38:03.994Z,3512.00
2019-04-25T07:39:08.192Z,7096.00
2019-04-25T07:40:04.140Z,3648.00
2019-04-25T07:41:03.728Z,3196.00
2019-04-25T07:42:04.145Z,4636.00
2019-04-25T07:43:04.815Z,4852.00
2019-04-25T07:44:04.257Z,4392.00
2019-04-25T07:45:04.219Z,5316.00
2019-04-25T07:46:03.513Z,4668.00
2019-04-25T07:47:04.026Z,4132.00
2019-04-25T07:48:04.106Z,4456.00
2019-04-25T07:49:03.512Z,3452.00
2019-04-25T07:50:04.013Z,3496.00
2019-04-25T07:51:03.715Z,3452.00
2019-04-25T07:52:03.595Z,2988.00
2019-04-25T07:53:03.625Z,2880.00
2019-04-25T07:54:04.499Z,2856.00
2019-04-25T07:55:03.773Z,2824.00
2019-04-25T07:56:04.242Z,2888.00
2019-04-25T07:57:03.649Z,2992.00
2019-04-25T07:58:03.186Z,2948.00
2019-04-25T07:59:03.828Z,2776.00
2019-04-25T08:00:03.234Z,2600.00
2019-04-25T08:01:03.774Z,2460.00
2019-04-25T08:02:03.377Z,2420.00
2019-04-25T08:03:04.083Z,2344.00
2019-04-25T08:04:03.567Z,2268.00
2019-04-25T08:05:04.179Z,2240.00
2019-04-25T08:06:03.069Z,2236.00
2019-04-25T08:07:04.112Z,2196.00
2019-04-25T08:08:03.498Z,2128.00
2019-04-25T08:09:04.076Z,2104.00
2019-04-25T08:10:04.013Z,2044.00
2019-04-25T08:11:04.053Z,1956.00
2019-04-25T08:12:03.348Z,1908.00
2019-04-25T08:13:03.285Z,1892.00
2019-04-25T08:14:03.426Z,1964.00
2019-04-25T08:15:04.061Z,2076.00
2019-04-25T08:16:03.409Z,2216.00
2019-04-25T08:17:03.693Z,2344.00
2019-04-25T08:18:04.000Z,2380.00
2019-04-25T08:19:03.904Z,2452.00
2019-04-25T08:20:03.901Z,2484.00
2019-04-25T08:21:03.321Z,2536.00
2019-04-25T08:22:03.639Z,2692.00
2019-04-25T08:23:04.116Z,2860.00
2019-04-25T08:24:03.053Z,2956.00
2019-04-25T08:25:03.638Z,2964.00
2019-04-25T08:26:02.044Z,2860.00
2019-04-25T08:27:03.306Z,2744.00
2019-04-25T08:28:03.715Z,2696.00
2019-04-25T08:29:03.595Z,2712.00
2019-04-25T08:30:01.957Z,2848.00
2019-04-25T08:31:03.506Z,2908.00
2019-04-25T08:32:01.843Z,2912.00
2019-04-25T08:33:01.841Z,3000.00
2019-04-25T08:34:03.452Z,3100.00
2019-04-25T08:35:01.753Z,3216.00
2019-04-25T08:36:06.505Z,3316.00
2019-04-25T08:37:01.695Z,3532.00
2019-04-25T08:38:03.380Z,3640.00
2019-04-25T08:39:03.256Z,3552.00
2019-04-25T08:40:01.593Z,3460.00
2019-04-25T08:41:01.564Z,3508.00
2019-04-25T08:42:03.335Z,3672.00
2019-04-25T08:43:01.502Z,3784.00
2019-04-25T08:44:01.490Z,3804.00
2019-04-25T08:45:03.581Z,3772.00
2019-04-25T08:46:01.416Z,3676.00
2019-04-25T08:47:01.369Z,3452.00
2019-04-25T08:48:01.338Z,3268.00
2019-04-25T08:49:02.354Z,3096.00
2019-04-25T08:50:01.282Z,3100.00
2019-04-25T08:51:01.245Z,3272.00
2019-04-25T08:52:01.211Z,3624.00
2019-04-25T08:53:01.188Z,4168.00
2019-04-25T08:54:01.157Z,4592.00
2019-04-25T08:55:01.124Z,4800.00
2019-04-25T08:56:01.087Z,5096.00
2019-04-25T08:57:01.054Z,6972.00
2019-04-25T08:58:01.082Z,5752.00
2019-04-25T08:59:05.379Z,5264.00
2019-04-25T09:00:01.000Z,4736.00
2019-04-25T09:01:01.522Z,4468.00
2019-04-25T09:02:00.899Z,4276.00
2019-04-25T09:03:00.930Z,3836.00
2019-04-25T09:04:03.162Z,3844.00
2019-04-25T09:05:00.812Z,3812.00
2019-04-25T09:06:01.058Z,3808.00
2019-04-25T09:07:00.801Z,4292.00
2019-04-25T09:08:00.766Z,4180.00
2019-04-25T09:09:00.692Z,3936.00
2019-04-25T09:10:00.711Z,3548.00
2019-04-25T09:11:00.673Z,3168.00
2019-04-25T09:12:00.609Z,3068.00
2019-04-25T09:13:00.618Z,3276.00
2019-04-25T09:14:00.530Z,3704.00
2019-04-25T09:15:00.499Z,4528.00
2019-04-25T09:16:00.480Z,5820.00
2019-04-25T09:17:00.436Z,5476.00
2019-04-25T09:18:00.470Z,5512.00
2019-04-25T09:19:00.380Z,5520.00
2019-04-25T09:20:00.397Z,5516.00
2019-04-25T09:21:00.315Z,5884.00
2019-04-25T09:22:00.335Z,5872.00
2019-04-25T09:23:00.311Z,5120.00
2019-04-25T09:24:00.224Z,4412.00
2019-04-25T09:25:00.236Z,4012.00
2019-04-25T09:26:00.217Z,3780.00
2019-04-25T09:27:00.131Z,3756.00
2019-04-25T09:28:00.158Z,3880.00
2019-04-25T09:29:00.074Z,4044.00
2019-04-25T09:30:00.040Z,4344.00
2019-04-25T09:31:00.072Z,4652.00
2019-04-25T09:31:59.986Z,4712.00
2019-04-25T09:33:00.015Z,4616.00
2019-04-25T09:33:59.973Z,4492.00
2019-04-25T09:34:59.888Z,4364.00
2019-04-25T09:35:59.913Z,4276.00
2019-04-25T09:36:59.898Z,4272.00
2019-04-25T09:37:59.795Z,4276.00
2019-04-25T09:38:59.767Z,4136.00
2019-04-25T09:39:59.854Z,4324.00
2019-04-25T09:40:59.757Z,4452.00
2019-04-25T09:41:59.733Z,4496.00
2019-04-25T09:42:59.699Z,4728.00
2019-04-25T09:43:59.623Z,4660.00
2019-04-25T09:44:59.585Z,4596.00
2019-04-25T09:45:59.554Z,4604.00
2019-04-25T09:46:59.575Z,4484.00
2019-04-25T09:47:59.552Z,4116.00
2019-04-25T09:48:59.517Z,3824.00
2019-04-25T09:49:59.482Z,3584.00
2019-04-25T09:50:59.472Z,3368.00
2019-04-25T09:51:59.371Z,3276.00
2019-04-25T09:52:59.392Z,3276.00
2019-04-25T09:53:59.402Z,3276.00
2019-04-25T09:54:59.330Z,3364.00
2019-04-25T09:55:59.252Z,3468.00
2019-04-25T09:56:59.219Z,3592.00
2019-04-25T09:57:59.238Z,3756.00
2019-04-25T09:58:59.240Z,3928.00
2019-04-25T09:59:59.181Z,4164.00
2019-04-25T10:00:59.148Z,4372.00
2019-04-25T10:01:59.078Z,4428.00
2019-04-25T10:02:59.039Z,4300.00
2019-04-25T10:03:59.059Z,4224.00
2019-04-25T10:04:59.011Z,4220.00
2019-04-25T10:05:58.940Z,4264.00
2019-04-25T10:06:58.911Z,4332.00
2019-04-25T10:07:58.941Z,4432.00
2019-04-25T10:08:58.944Z,4536.00
2019-04-25T10:09:58.884Z,4564.00
2019-04-25T10:10:58.844Z,4536.00
2019-04-25T10:11:58.818Z,4492.00
2019-04-25T10:12:58.732Z,4348.00
2019-04-25T10:13:58.704Z,4108.00
2019-04-25T10:14:58.675Z,3820.00
2019-04-25T10:15:58.712Z,3604.00
2019-04-25T10:16:58.673Z,3504.00
2019-04-25T10:17:58.645Z,3500.00
2019-04-25T10:18:58.612Z,3480.00
2019-04-25T10:19:58.581Z,3328.00
2019-04-25T10:20:58.540Z,3200.00
2019-04-25T10:21:58.515Z,3064.00
2019-04-25T10:22:58.482Z,2912.00
2019-04-25T10:23:58.465Z,2764.00
2019-04-25T10:25:00.684Z,2684.00
2019-04-25T10:25:58.391Z,2652.00
2019-04-25T10:26:58.371Z,2648.00
2019-04-25T10:27:58.348Z,2680.00
2019-04-25T10:28:58.307Z,2756.00
2019-04-25T10:29:58.274Z,2784.00
2019-04-25T10:30:58.268Z,2752.00
2019-04-25T10:31:58.210Z,2660.00
2019-04-25T10:32:58.179Z,2532.00
2019-04-25T10:33:58.152Z,2436.00
2019-04-25T10:34:58.116Z,2420.00
2019-04-25T10:35:59.519Z,2452.00
2019-04-25T10:36:58.055Z,2524.00
2019-04-25T10:37:58.028Z,2764.00
2019-04-25T10:39:07.495Z,3132.00
2019-04-25T10:39:57.988Z,3548.00
2019-04-25T10:40:57.947Z,3772.00
2019-04-25T10:41:57.906Z,3724.00
2019-04-25T10:42:57.886Z,3640.00
2019-04-25T10:43:57.845Z,3660.00
2019-04-25T10:44:57.826Z,3672.00
2019-04-25T10:45:57.818Z,3788.00
2019-04-25T10:46:57.760Z,4028.00
2019-04-25T10:47:57.727Z,4360.00
2019-04-25T10:48:57.692Z,4936.00
2019-04-25T10:49:59.119Z,5416.00
2019-04-25T10:50:57.635Z,5076.00
2019-04-25T10:51:57.603Z,4604.00
2019-04-25T10:52:57.583Z,4380.00
2019-04-25T10:53:57.543Z,4360.00
2019-04-25T10:54:57.537Z,4400.00
2019-04-25T10:55:57.503Z,4616.00
2019-04-25T10:56:57.457Z,4444.00
2019-04-25T10:57:57.424Z,4224.00
2019-04-25T10:58:57.405Z,4400.00
2019-04-25T11:00:06.324Z,4636.00
2019-04-25T11:00:57.339Z,4748.00
2019-04-25T11:01:57.339Z,4936.00
2019-04-25T11:02:57.299Z,4744.00
2019-04-25T11:03:57.280Z,5024.00
2019-04-25T11:04:57.241Z,5424.00
2019-04-25T11:05:57.190Z,6172.00
2019-04-25T11:06:57.165Z,7224.00
2019-04-25T11:07:57.135Z,8220.00
2019-04-25T11:08:57.119Z,10084.00
2019-04-25T11:09:57.078Z,13608.00
2019-04-25T11:10:57.065Z,10628.00
2019-04-25T11:11:56.994Z,12032.00
2019-04-25T11:12:56.966Z,11032.00
2019-04-25T11:13:56.910Z,16064.00
2019-04-25T11:14:56.884Z,12120.00
2019-04-25T11:15:57.115Z,13612.00
2019-04-25T11:16:56.834Z,11476.00
2019-04-25T11:17:56.806Z,11004.00
2019-04-25T11:18:56.812Z,12408.00
2019-04-25T11:19:56.793Z,11208.00
2019-04-25T11:20:56.739Z,10612.00
2019-04-25T11:21:56.719Z,10504.00
2019-04-25T11:22:56.690Z,10484.00
2019-04-25T11:23:56.668Z,10540.00
2019-04-25T11:24:56.652Z,10516.00
2019-04-25T11:25:56.627Z,10580.00
2019-04-25T11:26:56.598Z,10304.00
2019-04-25T11:27:56.620Z,8380.00
2019-04-25T11:28:56.556Z,9348.00
2019-04-25T11:30:08.589Z,10800.00
2019-04-25T11:30:56.993Z,11056.00
2019-04-25T11:31:56.486Z,11204.00
2019-04-25T11:32:56.497Z,11252.00
2019-04-25T11:33:56.442Z,10120.00
2019-04-25T11:34:57.279Z,11124.00
2019-04-25T11:35:56.577Z,10728.00
2019-04-25T11:36:56.373Z,10600.00
2019-04-25T11:37:56.929Z,10884.00
2019-04-25T11:38:56.367Z,11180.00
2019-04-25T11:39:56.311Z,11448.00
2019-04-25T11:40:56.295Z,11684.00
2019-04-25T11:41:56.286Z,12120.00
2019-04-25T11:42:56.295Z,12744.00
2019-04-25T11:43:56.815Z,13320.00
2019-04-25T11:44:56.265Z,8068.00
2019-04-25T11:45:57.113Z,8496.00
2019-04-25T11:46:56.231Z,11452.00
2019-04-25T11:47:56.223Z,14240.00
2019-04-25T11:48:56.159Z,14432.00
2019-04-25T11:49:56.155Z,13352.00
2019-04-25T11:50:56.124Z,14752.00
2019-04-25T11:51:56.093Z,10368.00
2019-04-25T11:52:56.358Z,15616.00
2019-04-25T11:53:56.056Z,15872.00
2019-04-25T11:54:56.081Z,16640.00
2019-04-25T11:55:56.015Z,9064.00
2019-04-25T11:56:56.484Z,13080.00
2019-04-25T11:57:55.969Z,17312.00
2019-04-25T11:58:55.945Z,17824.00
2019-04-25T11:59:55.936Z,18496.00
2019-04-25T12:00:57.950Z,17856.00
2019-04-25T12:01:57.293Z,19104.00
2019-04-25T12:02:56.120Z,11992.00
2019-04-25T12:03:56.146Z,6600.00
2019-04-25T12:04:55.817Z,6404.00
2019-04-25T12:05:55.798Z,6476.00
2019-04-25T12:06:55.767Z,13264.00
2019-04-25T12:07:55.750Z,7160.00
2019-04-25T12:08:56.438Z,7880.00
2019-04-25T12:09:55.710Z,8660.00
2019-04-25T12:10:55.705Z,20416.00
2019-04-25T12:11:55.978Z,20960.00
2019-04-25T12:12:55.720Z,21856.00
2019-04-25T12:13:55.603Z,6256.00
2019-04-25T12:14:55.606Z,8108.00
2019-04-25T12:15:55.743Z,10340.00
2019-04-25T12:16:56.262Z,21632.00
2019-04-25T12:17:55.913Z,22816.00
2019-04-25T12:18:56.462Z,22848.00
2019-04-25T12:19:56.233Z,23872.00
2019-04-25T12:20:57.908Z,12344.00
2019-04-25T12:21:56.730Z,18016.00
2019-04-25T12:23:05.943Z,20928.00
2019-04-25T12:23:55.376Z,24384.00
2019-04-25T12:24:55.757Z,13592.00
2019-04-25T12:25:55.356Z,24064.00
2019-04-25T12:26:56.018Z,24352.00
2019-04-25T12:27:55.287Z,25408.00